Broadwell, Illinois
Current Conditions -  °F | °C
As of 11:52 PM on Sunday 19 Oct 2014 (Local Time) from KSPI Reporting Station
Overcast Overcast  
Wind Chill: 56°   Ceiling: 9500
Heat Index: 56°   Visibility: 10mi
Dew Point: 46°   Wind: 9mph
Humidity: 69%   Direction: 210°SSW
Pressure: 29.99"   Gusts: NA
Location:  39.9935°N, 89.4758°W
Report Text: KSPI 200452Z 21008KT 10SM OVC095 13/08 A2999 RMK AO2 SLP156 T01330078
Loading
Personal Weather Stations






























Interactive Weather Map New forecast layout! Learn more

10-Day Weather Forecast

Advertisements
Track Severe Weather on mobile